Bemidji, Minnesota
Current Conditions -  °F | °C
As of 1:53 AM on Monday 24 Nov 2014 (Local Time) from KBJI Reporting Station
Light Snow Light Snow  
Wind Chill: -16°   Ceiling: 500
Heat Index: -8°   Visibility: 3mi
Dew Point: -9°   Wind: 17mph
Humidity: 94%   Direction: 310°NW
Pressure: 29.42"   Gusts: NA
Location:  47.47°N, 94.88°W
Report Text: KBJI 240753Z AUTO 31015KT 3SM -SN OVC005 M08/M09 A2942 RMK AO2 T10781086
Loading
Personal Weather Stations






























Interactive Weather Map New forecast layout! Learn more

10-Day Weather Forecast

Advertisements
Track Severe Weather on mobile